Time;durP1;ratioP1;P1;durP2;ratioP2;P2;SDS_P1;SDS_P2;PMS_P1;PMS_P2;Temp;Humidity;BMP_temperature;BMP_pressure;BME280_temperature;BME280_humidity;BME280_pressure;Samples;Min_cycle;Max_cycle;Signal;HPM_P1;HPM_P2
2023/11/25 00:00:13;;;;;;;5.80;1.83;;;;;;;;;;522312;28;1388;-73
2023/11/25 00:00:28;;;;;;;5.10;1.70;;;;;;;;;;522743;28;1166;-73
2023/11/25 00:00:44;;;;;;;4.97;1.70;;;;;;;;;;522884;28;1431;-73
2023/11/25 00:01:00;;;;;;;6.32;1.70;;;;;;;;;;521879;28;1408;-73
2023/11/25 00:01:16;;;;;;;7.35;1.90;;;;;;;;;;522155;28;1372;-73
2023/11/25 00:01:31;;;;;;;6.87;1.90;;;;;;;;;;519567;28;1870;-73
2023/11/25 00:01:46;;;;;;;6.07;1.60;;;;;;;;;;520249;28;1380;-73
2023/11/25 00:02:01;;;;;;;6.50;1.70;;;;;;;;;;519625;28;1329;-73
2023/11/25 00:02:17;;;;;;;7.43;1.90;;;;;;;;;;520204;28;1432;-73
2023/11/25 00:02:33;;;;;;;6.72;1.85;;;;;;;;;;520264;28;1508;-73
2023/11/25 00:02:49;;;;;;;6.57;1.88;;;;;;;;;;519402;28;1465;-73
2023/11/25 00:03:04;;;;;;;6.63;1.98;;;;;;;;;;520325;28;1866;-73
2023/11/25 00:03:20;;;;;;;6.67;1.93;;;;;;;;;;520945;28;1169;-73
2023/11/25 00:03:35;;;;;;;6.00;1.85;;;;;;;;;;519582;28;1617;-73
2023/11/25 00:03:50;;;;;;;5.57;1.70;;;;;;;;;;519749;28;1432;-73
2023/11/25 00:04:06;;;;;;;5.47;1.50;;;;;;;;;;520332;28;1599;-73
2023/11/25 00:04:21;;;;;;;6.03;1.67;;;;;;;;;;518694;28;1238;-73
2023/11/25 00:04:36;;;;;;;6.00;1.70;;;;;;;;;;518402;28;1868;-73
2023/11/25 00:04:51;;;;;;;6.47;1.67;;;;;;;;;;516595;28;1533;-74
2023/11/25 00:05:07;;;;;;;6.70;1.60;;;;;;;;;;515874;28;1228;-73
2023/11/25 00:05:23;;;;;;;5.77;1.63;;;;;;;;;;515414;28;1144;-73
2023/11/25 00:05:38;;;;;;;7.30;1.90;;;;;;;;;;516922;28;1377;-73
2023/11/25 00:05:54;;;;;;;7.30;1.83;;;;;;;;;;517319;28;1413;-73
2023/11/25 00:06:09;;;;;;;5.75;1.80;;;;;;;;;;516834;28;1896;-73
2023/11/25 00:06:25;;;;;;;5.87;1.80;;;;;;;;;;518655;28;1175;-73
2023/11/25 00:06:40;;;;;;;6.38;1.80;;;;;;;;;;519132;28;1242;-73
2023/11/25 00:06:55;;;;;;;8.00;2.00;;;;;;;;;;516477;28;1977;-74
2023/11/25 00:07:10;;;;;;;7.07;1.90;;;;;;;;;;519526;28;1386;-73
2023/11/25 00:07:26;;;;;;;5.85;1.77;;;;;;;;;;521387;28;1186;-73
2023/11/25 00:07:41;;;;;;;6.03;1.70;;;;;;;;;;520314;28;1411;-73
2023/11/25 00:07:56;;;;;;;6.53;1.80;;;;;;;;;;520851;28;3647;-73
2023/11/25 00:08:12;;;;;;;7.05;2.00;;;;;;;;;;520631;28;1249;-73
2023/11/25 00:08:27;;;;;;;8.73;2.03;;;;;;;;;;520797;28;1141;-73
2023/11/25 00:08:42;;;;;;;9.77;2.00;;;;;;;;;;521148;28;1373;-73
2023/11/25 00:08:58;;;;;;;7.15;1.70;;;;;;;;;;520461;28;1439;-73
2023/11/25 00:09:15;;;;;;;5.33;1.60;;;;;;;;;;521408;28;1416;-73
2023/11/25 00:09:31;;;;;;;5.78;1.77;;;;;;;;;;518944;28;1888;-73
2023/11/25 00:09:47;;;;;;;6.23;1.80;;;;;;;;;;517059;28;1439;-74
2023/11/25 00:10:04;;;;;;;5.70;1.60;;;;;;;;;;517129;28;1406;-73
2023/11/25 00:10:19;;;;;;;6.15;1.70;;;;;;;;;;516642;28;1259;-73
2023/11/25 00:10:35;;;;;;;6.60;1.85;;;;;;;;;;517486;28;1417;-73
2023/11/25 00:10:50;;;;;;;6.67;1.90;;;;;;;;;;515881;28;1265;-73
2023/11/25 00:11:05;;;;;;;6.07;1.60;;;;;;;;;;516454;28;1877;-73
2023/11/25 00:11:20;;;;;;;5.35;1.60;;;;;;;;;;517461;28;1407;-73
2023/11/25 00:11:36;;;;;;;5.20;1.60;;;;;;;;;;519529;28;1349;-73
2023/11/25 00:11:51;;;;;;;5.33;1.57;;;;;;;;;;518527;28;1389;-73
2023/11/25 00:12:06;;;;;;;5.18;1.67;;;;;;;;;;518812;28;1207;-73
2023/11/25 00:12:22;;;;;;;6.20;1.77;;;;;;;;;;518496;28;1286;-73
2023/11/25 00:12:38;;;;;;;6.22;1.70;;;;;;;;;;518912;28;1307;-73
2023/11/25 00:12:54;;;;;;;5.97;1.80;;;;;;;;;;520891;28;2192;-74
2023/11/25 00:13:09;;;;;;;6.70;1.70;;;;;;;;;;521051;28;1419;-73
2023/11/25 00:13:25;;;;;;;5.90;1.40;;;;;;;;;;521416;28;1222;-73
2023/11/25 00:13:40;;;;;;;6.17;1.60;;;;;;;;;;521275;28;1439;-73
2023/11/25 00:13:55;;;;;;;6.00;1.60;;;;;;;;;;522274;28;1454;-73
2023/11/25 00:14:10;;;;;;;4.67;1.40;;;;;;;;;;523150;28;1506;-73
2023/11/25 00:14:26;;;;;;;3.67;1.37;;;;;;;;;;523107;28;1830;-73
2023/11/25 00:14:41;;;;;;;4.03;1.40;;;;;;;;;;522457;28;1134;-73
2023/11/25 00:14:57;;;;;;;6.23;1.60;;;;;;;;;;521703;28;1828;-72
2023/11/25 00:15:12;;;;;;;6.47;1.52;;;;;;;;;;520328;28;1070;-73
2023/11/25 00:15:28;;;;;;;6.03;1.40;;;;;;;;;;520240;28;1131;-73
2023/11/25 00:15:43;;;;;;;5.95;1.45;;;;;;;;;;520429;28;1278;-73
2023/11/25 00:15:58;;;;;;;5.80;1.50;;;;;;;;;;518014;28;1664;-73
2023/11/25 00:16:14;;;;;;;6.13;1.70;;;;;;;;;;517886;28;1238;-73
2023/11/25 00:16:30;;;;;;;5.70;1.42;;;;;;;;;;518344;28;1358;-73
2023/11/25 00:16:45;;;;;;;6.00;1.35;;;;;;;;;;517624;28;1357;-73
2023/11/25 00:17:01;;;;;;;6.23;1.50;;;;;;;;;;519357;28;1510;-73
2023/11/25 00:17:17;;;;;;;4.72;1.40;;;;;;;;;;520948;28;1333;-72
2023/11/25 00:17:32;;;;;;;4.47;1.30;;;;;;;;;;520427;28;1965;-73
2023/11/25 00:17:48;;;;;;;5.30;1.30;;;;;;;;;;521590;28;1305;-73
2023/11/25 00:18:03;;;;;;;5.43;1.40;;;;;;;;;;523424;28;1446;-73
2023/11/25 00:18:18;;;;;;;5.20;1.40;;;;;;;;;;523249;28;1374;-73
2023/11/25 00:18:34;;;;;;;4.97;1.27;;;;;;;;;;523340;28;1236;-73
2023/11/25 00:18:49;;;;;;;5.72;1.40;;;;;;;;;;522872;28;1511;-73
2023/11/25 00:19:05;;;;;;;5.67;1.50;;;;;;;;;;523496;28;1372;-73
2023/11/25 00:19:21;;;;;;;5.38;1.48;;;;;;;;;;520984;28;2278;-73
2023/11/25 00:19:36;;;;;;;6.32;1.60;;;;;;;;;;520638;28;1296;-73
2023/11/25 00:19:51;;;;;;;6.10;1.40;;;;;;;;;;521698;28;1422;-73
2023/11/25 00:20:09;;;;;;;5.30;1.20;;;;;;;;;;521025;28;1400;-73
2023/11/25 00:20:25;;;;;;;5.57;1.40;;;;;;;;;;518161;28;1811;-73
2023/11/25 00:20:40;;;;;;;7.07;1.80;;;;;;;;;;519473;28;1251;-73
2023/11/25 00:20:55;;;;;;;6.03;1.70;;;;;;;;;;519448;28;2241;-73
2023/11/25 00:21:11;;;;;;;5.95;1.60;;;;;;;;;;519661;28;1406;-73
2023/11/25 00:21:26;;;;;;;6.97;1.60;;;;;;;;;;520980;28;1369;-73
2023/11/25 00:21:41;;;;;;;6.57;1.60;;;;;;;;;;521035;28;1301;-72
2023/11/25 00:21:57;;;;;;;5.47;1.50;;;;;;;;;;518518;28;1657;-73
2023/11/25 00:22:12;;;;;;;5.23;1.50;;;;;;;;;;516742;28;1648;-74
2023/11/25 00:22:27;;;;;;;5.70;1.63;;;;;;;;;;519068;28;1784;-73
2023/11/25 00:22:42;;;;;;;5.32;1.50;;;;;;;;;;516721;28;3082;-73
2023/11/25 00:22:58;;;;;;;4.90;1.30;;;;;;;;;;517584;28;1425;-73
2023/11/25 00:23:13;;;;;;;5.70;1.40;;;;;;;;;;517518;28;1361;-74
2023/11/25 00:23:36;;;;;;;5.72;1.58;;;;;;;;;;518452;28;1162;-73
2023/11/25 00:23:51;;;;;;;6.18;1.60;;;;;;;;;;516769;28;1422;-73
2023/11/25 00:24:07;;;;;;;5.43;1.60;;;;;;;;;;517857;28;1830;-74
2023/11/25 00:24:24;;;;;;;4.70;1.50;;;;;;;;;;519022;28;1560;-73
2023/11/25 00:24:39;;;;;;;4.78;1.40;;;;;;;;;;517783;28;1382;-73
2023/11/25 00:24:56;;;;;;;4.85;1.40;;;;;;;;;;518881;28;1373;-73
2023/11/25 00:25:12;;;;;;;4.88;1.45;;;;;;;;;;520752;28;1370;-73
2023/11/25 00:25:27;;;;;;;4.65;1.40;;;;;;;;;;520886;28;1539;-73
2023/11/25 00:25:43;;;;;;;4.87;1.23;;;;;;;;;;520855;28;1858;-72
2023/11/25 00:25:58;;;;;;;5.60;1.40;;;;;;;;;;520452;28;1626;-73
2023/11/25 00:26:13;;;;;;;6.07;1.48;;;;;;;;;;520415;28;1506;-73
2023/11/25 00:26:28;;;;;;;5.50;1.37;;;;;;;;;;521569;28;1439;-73
2023/11/25 00:26:44;;;;;;;6.20;1.53;;;;;;;;;;521053;28;1234;-73
2023/11/25 00:26:59;;;;;;;6.27;1.57;;;;;;;;;;520941;28;1918;-73
2023/11/25 00:27:15;;;;;;;6.20;1.42;;;;;;;;;;521004;28;1843;-73
2023/11/25 00:27:30;;;;;;;6.38;1.42;;;;;;;;;;520678;28;1106;-73
2023/11/25 00:27:49;;;;;;;4.30;1.33;;;;;;;;;;521093;28;1320;-73
2023/11/25 00:28:09;;;;;;;4.57;1.48;;;;;;;;;;519801;28;1320;-73
2023/11/25 00:28:25;;;;;;;4.55;1.35;;;;;;;;;;519685;28;1321;-73
2023/11/25 00:28:40;;;;;;;3.88;1.30;;;;;;;;;;521612;28;1369;-73
2023/11/25 00:28:56;;;;;;;5.30;1.40;;;;;;;;;;521502;28;2084;-73
2023/11/25 00:29:11;;;;;;;5.55;1.38;;;;;;;;;;520532;28;1241;-73
2023/11/25 00:29:27;;;;;;;5.20;1.30;;;;;;;;;;522357;28;1369;-73
2023/11/25 00:29:42;;;;;;;6.00;1.33;;;;;;;;;;521825;28;1419;-73
2023/11/25 00:29:58;;;;;;;4.60;1.20;;;;;;;;;;522924;28;1426;-73
2023/11/25 00:30:14;;;;;;;4.22;1.10;;;;;;;;;;523206;28;1438;-73
2023/11/25 00:30:29;;;;;;;4.32;1.20;;;;;;;;;;522153;28;1845;-73
2023/11/25 00:30:45;;;;;;;4.87;1.33;;;;;;;;;;519778;28;1455;-73
2023/11/25 00:31:00;;;;;;;4.90;1.27;;;;;;;;;;520628;28;1577;-73
2023/11/25 00:31:15;;;;;;;4.77;1.10;;;;;;;;;;520940;28;1352;-73
2023/11/25 00:31:31;;;;;;;4.67;1.00;;;;;;;;;;520985;28;1245;-73
2023/11/25 00:31:54;;;;;;;3.90;1.05;;;;;;;;;;521058;28;1313;-73
2023/11/25 00:32:10;;;;;;;4.57;1.20;;;;;;;;;;520861;28;1435;-73
2023/11/25 00:32:25;;;;;;;4.90;1.23;;;;;;;;;;520240;28;1464;-73
2023/11/25 00:32:41;;;;;;;4.43;1.30;;;;;;;;;;522193;28;1166;-73
2023/11/25 00:32:56;;;;;;;3.72;1.20;;;;;;;;;;522096;28;1527;-73
2023/11/25 00:33:13;;;;;;;4.70;1.40;;;;;;;;;;521635;28;1391;-72
2023/11/25 00:33:28;;;;;;;4.60;1.35;;;;;;;;;;521690;28;1361;-73
2023/11/25 00:33:43;;;;;;;3.53;1.20;;;;;;;;;;519776;28;1878;-73
2023/11/25 00:33:58;;;;;;;4.00;1.20;;;;;;;;;;518753;28;1381;-73
2023/11/25 00:34:14;;;;;;;4.40;1.20;;;;;;;;;;519056;28;1302;-73
2023/11/25 00:34:29;;;;;;;5.33;1.23;;;;;;;;;;519233;28;1449;-73
2023/11/25 00:34:44;;;;;;;5.33;1.17;;;;;;;;;;519562;28;1319;-73
2023/11/25 00:35:00;;;;;;;3.78;1.20;;;;;;;;;;520921;28;1533;-73
2023/11/25 00:35:15;;;;;;;4.70;1.33;;;;;;;;;;518035;28;2050;-73
2023/11/25 00:35:31;;;;;;;5.30;1.17;;;;;;;;;;519196;28;1156;-73
2023/11/25 00:35:48;;;;;;;5.13;1.10;;;;;;;;;;518694;28;1782;-73
2023/11/25 00:36:03;;;;;;;6.38;1.35;;;;;;;;;;518725;28;1234;-73
2023/11/25 00:36:19;;;;;;;6.00;1.50;;;;;;;;;;518329;28;1235;-73
2023/11/25 00:36:34;;;;;;;5.57;1.30;;;;;;;;;;519130;28;1494;-73
2023/11/25 00:36:51;;;;;;;6.32;1.20;;;;;;;;;;518507;28;1908;-73
2023/11/25 00:37:08;;;;;;;5.47;1.20;;;;;;;;;;519084;28;1451;-73
2023/11/25 00:37:23;;;;;;;4.93;1.27;;;;;;;;;;520744;28;1357;-72
2023/11/25 00:37:42;;;;;;;4.67;1.30;;;;;;;;;;520312;28;1316;-73
2023/11/25 00:37:57;;;;;;;4.78;1.23;;;;;;;;;;522014;28;1317;-73
2023/11/25 00:38:13;;;;;;;4.53;1.13;;;;;;;;;;522125;28;1766;-73
2023/11/25 00:38:28;;;;;;;3.63;1.10;;;;;;;;;;523012;28;2258;-73
2023/11/25 00:38:43;;;;;;;4.37;1.27;;;;;;;;;;520919;28;1432;-73
2023/11/25 00:38:59;;;;;;;5.30;1.40;;;;;;;;;;520689;28;1395;-73
2023/11/25 00:39:15;;;;;;;5.40;1.48;;;;;;;;;;521021;28;1250;-73
2023/11/25 00:39:30;;;;;;;5.70;1.40;;;;;;;;;;520902;28;1106;-73
2023/11/25 00:39:45;;;;;;;4.78;1.20;;;;;;;;;;518259;28;1368;-73
2023/11/25 00:40:02;;;;;;;3.80;1.20;;;;;;;;;;518939;28;1892;-73
2023/11/25 00:40:19;;;;;;;4.70;1.30;;;;;;;;;;519044;28;1310;-73
2023/11/25 00:40:35;;;;;;;5.28;1.30;;;;;;;;;;519605;28;1383;-73
2023/11/25 00:40:51;;;;;;;5.25;1.30;;;;;;;;;;520757;28;1290;-73
2023/11/25 00:41:06;;;;;;;5.57;1.38;;;;;;;;;;520533;28;1546;-73
2023/11/25 00:41:21;;;;;;;5.20;1.40;;;;;;;;;;520269;28;1289;-73
2023/11/25 00:41:38;;;;;;;4.63;1.33;;;;;;;;;;520613;28;2165;-73
2023/11/25 00:41:53;;;;;;;5.35;1.30;;;;;;;;;;523376;28;1478;-73
2023/11/25 00:42:08;;;;;;;4.87;1.10;;;;;;;;;;523210;28;1372;-73
2023/11/25 00:42:26;;;;;;;4.22;1.17;;;;;;;;;;520838;28;1440;-73
2023/11/25 00:42:42;;;;;;;4.93;1.30;;;;;;;;;;520307;28;1570;-74
2023/11/25 00:42:57;;;;;;;4.25;1.20;;;;;;;;;;520320;28;1412;-73
2023/11/25 00:43:12;;;;;;;4.67;1.30;;;;;;;;;;521059;28;2112;-73
2023/11/25 00:43:28;;;;;;;5.17;1.30;;;;;;;;;;520275;28;1134;-73
2023/11/25 00:43:43;;;;;;;5.30;1.30;;;;;;;;;;520542;28;1365;-73
2023/11/25 00:43:58;;;;;;;5.97;1.40;;;;;;;;;;520408;28;1229;-73
2023/11/25 00:44:14;;;;;;;5.30;1.40;;;;;;;;;;520501;28;1887;-73
2023/11/25 00:44:29;;;;;;;4.55;1.35;;;;;;;;;;523127;28;1170;-73
2023/11/25 00:44:44;;;;;;;4.97;1.30;;;;;;;;;;520852;28;1856;-73
2023/11/25 00:44:59;;;;;;;4.50;1.20;;;;;;;;;;520148;28;1416;-73
2023/11/25 00:45:15;;;;;;;3.92;1.10;;;;;;;;;;520121;28;1361;-73
2023/11/25 00:45:30;;;;;;;4.47;1.20;;;;;;;;;;520780;28;1180;-73
2023/11/25 00:45:46;;;;;;;4.97;1.30;;;;;;;;;;518438;28;1370;-73
2023/11/25 00:46:02;;;;;;;4.50;1.30;;;;;;;;;;516999;28;1390;-73
2023/11/25 00:46:18;;;;;;;3.63;1.15;;;;;;;;;;516282;28;2744;-73
2023/11/25 00:46:34;;;;;;;3.37;1.17;;;;;;;;;;517153;28;1386;-73
2023/11/25 00:46:49;;;;;;;4.22;1.23;;;;;;;;;;518394;28;1815;-73
2023/11/25 00:47:11;;;;;;;5.43;1.20;;;;;;;;;;518525;28;1945;-73
2023/11/25 00:47:27;;;;;;;5.40;1.30;;;;;;;;;;518759;28;1191;-73
2023/11/25 00:47:42;;;;;;;5.35;1.30;;;;;;;;;;520081;28;1389;-73
2023/11/25 00:47:58;;;;;;;4.55;1.40;;;;;;;;;;521828;28;2116;-73
2023/11/25 00:48:13;;;;;;;5.13;1.40;;;;;;;;;;522345;28;1254;-73
2023/11/25 00:48:31;;;;;;;6.45;1.50;;;;;;;;;;523112;28;1129;-73
2023/11/25 00:48:46;;;;;;;5.30;1.30;;;;;;;;;;522872;28;1415;-73
2023/11/25 00:49:02;;;;;;;4.53;1.33;;;;;;;;;;522585;28;1395;-73
2023/11/25 00:49:19;;;;;;;5.13;1.48;;;;;;;;;;522141;28;1516;-73
2023/11/25 00:49:38;;;;;;;6.10;1.63;;;;;;;;;;519817;28;2181;-73
2023/11/25 00:49:53;;;;;;;4.55;1.40;;;;;;;;;;519609;28;1748;-73
2023/11/25 00:50:10;;;;;;;4.60;1.38;;;;;;;;;;519297;28;1394;-73
2023/11/25 00:50:25;;;;;;;5.18;1.33;;;;;;;;;;519191;28;1369;-73
2023/11/25 00:50:40;;;;;;;5.10;1.30;;;;;;;;;;517875;28;1298;-73
2023/11/25 00:50:56;;;;;;;5.03;1.40;;;;;;;;;;518045;28;1392;-73
2023/11/25 00:51:12;;;;;;;5.55;1.30;;;;;;;;;;518628;28;1837;-73
2023/11/25 00:51:27;;;;;;;5.55;1.30;;;;;;;;;;519694;28;1417;-73
2023/11/25 00:51:43;;;;;;;5.00;1.40;;;;;;;;;;521200;28;1464;-73
2023/11/25 00:51:58;;;;;;;4.93;1.50;;;;;;;;;;521009;28;1376;-73
2023/11/25 00:52:14;;;;;;;5.13;1.50;;;;;;;;;;521115;28;1522;-73
2023/11/25 00:52:29;;;;;;;5.35;1.40;;;;;;;;;;520841;28;1138;-73
2023/11/25 00:52:45;;;;;;;4.90;1.50;;;;;;;;;;522946;28;1916;-73
2023/11/25 00:53:00;;;;;;;4.80;1.50;;;;;;;;;;523072;28;1176;-73
2023/11/25 00:53:15;;;;;;;5.57;1.50;;;;;;;;;;522920;28;1380;-73
2023/11/25 00:53:31;;;;;;;5.57;1.50;;;;;;;;;;521294;28;1227;-73
2023/11/25 00:53:46;;;;;;;4.07;1.40;;;;;;;;;;520694;28;1400;-73
2023/11/25 00:54:01;;;;;;;3.83;1.30;;;;;;;;;;520618;28;1257;-73
2023/11/25 00:54:17;;;;;;;4.83;1.50;;;;;;;;;;518890;28;1409;-73
2023/11/25 00:54:33;;;;;;;5.35;1.55;;;;;;;;;;518853;28;2229;-73
2023/11/25 00:54:48;;;;;;;3.65;1.30;;;;;;;;;;518235;28;1882;-73
2023/11/25 00:55:08;;;;;;;4.97;1.40;;;;;;;;;;518851;28;1651;-73
2023/11/25 00:55:23;;;;;;;6.13;1.40;;;;;;;;;;519759;28;1471;-73
2023/11/25 00:55:39;;;;;;;4.57;1.23;;;;;;;;;;520852;28;1380;-73
2023/11/25 00:55:54;;;;;;;4.47;1.30;;;;;;;;;;521053;28;1522;-73
2023/11/25 00:56:10;;;;;;;5.07;1.53;;;;;;;;;;521949;28;1532;-73
2023/11/25 00:56:25;;;;;;;3.92;1.50;;;;;;;;;;520594;28;1401;-73
2023/11/25 00:56:41;;;;;;;3.97;1.33;;;;;;;;;;520668;28;1431;-73
2023/11/25 00:56:58;;;;;;;4.65;1.35;;;;;;;;;;520966;28;1349;-73
2023/11/25 00:57:13;;;;;;;4.25;1.30;;;;;;;;;;521053;28;1455;-73
2023/11/25 00:57:28;;;;;;;4.70;1.30;;;;;;;;;;518716;28;1382;-73
2023/11/25 00:57:44;;;;;;;5.60;1.53;;;;;;;;;;518620;28;2349;-73
2023/11/25 00:57:59;;;;;;;6.15;1.60;;;;;;;;;;519080;28;1405;-73
2023/11/25 00:58:14;;;;;;;5.43;1.33;;;;;;;;;;517008;28;1488;-73
2023/11/25 00:58:29;;;;;;;5.03;1.23;;;;;;;;;;518939;28;1385;-73
2023/11/25 00:58:45;;;;;;;5.72;1.40;;;;;;;;;;518521;28;1607;-72
2023/11/25 00:59:00;;;;;;;5.20;1.50;;;;;;;;;;518150;28;1355;-73
2023/11/25 00:59:15;;;;;;;4.93;1.43;;;;;;;;;;519079;28;2146;-73
2023/11/25 00:59:31;;;;;;;5.85;1.40;;;;;;;;;;519663;28;1242;-73
2023/11/25 00:59:46;;;;;;;5.60;1.40;;;;;;;;;;520241;28;1365;-73
2023/11/25 01:00:04;;;;;;;4.90;1.40;;;;;;;;;;519971;28;1354;-73
2023/11/25 01:00:22;;;;;;;4.90;1.40;;;;;;;;;;521894;28;1250;-73
2023/11/25 01:00:38;;;;;;;5.60;1.40;;;;;;;;;;522942;28;1173;-73
2023/11/25 01:00:53;;;;;;;5.20;1.40;;;;;;;;;;522154;28;1824;-74
2023/11/25 01:01:08;;;;;;;4.87;1.50;;;;;;;;;;521081;28;1169;-73
2023/11/25 01:01:25;;;;;;;4.63;1.65;;;;;;;;;;521013;28;1142;-73
2023/11/25 01:01:40;;;;;;;4.57;1.60;;;;;;;;;;521074;28;1413;-73
2023/11/25 01:01:55;;;;;;;4.03;1.40;;;;;;;;;;521167;28;1629;-73
2023/11/25 01:02:10;;;;;;;4.95;1.50;;;;;;;;;;521019;28;1543;-73
2023/11/25 01:02:27;;;;;;;5.60;1.53;;;;;;;;;;520034;28;2284;-73
2023/11/25 01:02:43;;;;;;;5.22;1.50;;;;;;;;;;521533;28;1289;-73
2023/11/25 01:02:58;;;;;;;4.35;1.48;;;;;;;;;;523280;28;1384;-73
2023/11/25 01:03:14;;;;;;;4.67;1.53;;;;;;;;;;523023;28;1452;-73
2023/11/25 01:03:29;;;;;;;5.77;1.60;;;;;;;;;;523023;28;1376;-73
2023/11/25 01:03:44;;;;;;;4.97;1.65;;;;;;;;;;522196;28;1443;-73
2023/11/25 01:03:59;;;;;;;4.10;1.40;;;;;;;;;;520469;28;1883;-73
2023/11/25 01:04:15;;;;;;;4.93;1.40;;;;;;;;;;519953;28;1468;-73
2023/11/25 01:04:30;;;;;;;4.93;1.48;;;;;;;;;;519834;28;1770;-73
2023/11/25 01:04:46;;;;;;;4.03;1.47;;;;;;;;;;520985;28;1408;-73
2023/11/25 01:05:04;;;;;;;3.57;1.47;;;;;;;;;;520760;28;1309;-73
2023/11/25 01:05:19;;;;;;;4.35;1.70;;;;;;;;;;519942;28;2045;-73
2023/11/25 01:05:34;;;;;;;4.20;1.60;;;;;;;;;;520350;28;1780;-73
2023/11/25 01:05:49;;;;;;;4.67;1.60;;;;;;;;;;520802;28;1476;-73
2023/11/25 01:06:08;;;;;;;4.70;1.60;;;;;;;;;;522284;28;1389;-72
2023/11/25 01:06:23;;;;;;;4.05;1.40;;;;;;;;;;522327;28;1396;-73
2023/11/25 01:06:38;;;;;;;4.97;1.60;;;;;;;;;;521187;28;1238;-73
2023/11/25 01:06:54;;;;;;;6.53;1.87;;;;;;;;;;521551;28;2056;-73
2023/11/25 01:07:09;;;;;;;5.72;1.90;;;;;;;;;;522131;28;1831;-73
2023/11/25 01:07:25;;;;;;;5.57;1.90;;;;;;;;;;520670;28;1725;-73
2023/11/25 01:07:40;;;;;;;7.03;1.73;;;;;;;;;;520927;28;1519;-73
2023/11/25 01:07:55;;;;;;;6.37;1.67;;;;;;;;;;521027;28;1451;-72
2023/11/25 01:08:11;;;;;;;5.43;1.80;;;;;;;;;;521093;28;1396;-73
2023/11/25 01:08:29;;;;;;;4.97;1.90;;;;;;;;;;521075;28;1217;-73
2023/11/25 01:08:44;;;;;;;5.53;1.73;;;;;;;;;;520381;28;1861;-73
2023/11/25 01:09:00;;;;;;;6.77;1.73;;;;;;;;;;520692;28;1409;-73
2023/11/25 01:09:16;;;;;;;6.63;1.67;;;;;;;;;;521095;28;1976;-73
2023/11/25 01:09:31;;;;;;;4.93;1.50;;;;;;;;;;522166;28;1486;-73
2023/11/25 01:09:47;;;;;;;5.77;1.63;;;;;;;;;;523017;28;1155;-73
2023/11/25 01:10:03;;;;;;;6.10;1.80;;;;;;;;;;521027;28;1405;-73
2023/11/25 01:10:19;;;;;;;5.07;1.65;;;;;;;;;;519873;28;1815;-73
2023/11/25 01:10:35;;;;;;;4.40;1.45;;;;;;;;;;520908;28;1462;-73
2023/11/25 01:10:50;;;;;;;3.38;1.50;;;;;;;;;;520970;28;1286;-73
2023/11/25 01:11:05;;;;;;;4.13;1.70;;;;;;;;;;519007;28;1416;-73
2023/11/25 01:11:21;;;;;;;4.43;1.70;;;;;;;;;;516776;28;1358;-73
2023/11/25 01:11:36;;;;;;;3.73;1.60;;;;;;;;;;516878;28;1275;-73
2023/11/25 01:11:54;;;;;;;4.53;1.67;;;;;;;;;;516946;28;1794;-73
2023/11/25 01:12:10;;;;;;;5.15;1.65;;;;;;;;;;516296;28;1200;-73
2023/11/25 01:12:26;;;;;;;5.05;1.80;;;;;;;;;;517604;28;1390;-73
2023/11/25 01:12:41;;;;;;;4.67;1.87;;;;;;;;;;516886;28;1279;-73
2023/11/25 01:12:56;;;;;;;4.23;1.60;;;;;;;;;;515468;28;1364;-73
2023/11/25 01:13:11;;;;;;;4.10;1.53;;;;;;;;;;517629;28;1414;-73
2023/11/25 01:13:28;;;;;;;3.90;1.70;;;;;;;;;;518738;28;1876;-73
2023/11/25 01:13:43;;;;;;;4.53;1.85;;;;;;;;;;518632;28;1290;-73
2023/11/25 01:13:59;;;;;;;4.77;1.80;;;;;;;;;;518428;28;1259;-73
2023/11/25 01:14:14;;;;;;;4.33;1.80;;;;;;;;;;516731;28;1378;-73
2023/11/25 01:14:31;;;;;;;4.13;1.77;;;;;;;;;;517142;28;1355;-73
2023/11/25 01:14:46;;;;;;;3.88;1.60;;;;;;;;;;517344;28;1453;-73
2023/11/25 01:15:05;;;;;;;5.20;1.60;;;;;;;;;;518894;28;1913;-73
2023/11/25 01:15:20;;;;;;;5.80;1.70;;;;;;;;;;518248;28;1346;-73
2023/11/25 01:15:35;;;;;;;4.97;1.87;;;;;;;;;;518595;28;1125;-73
2023/11/25 01:15:54;;;;;;;5.75;1.90;;;;;;;;;;518902;28;1590;-73
2023/11/25 01:16:18;;;;;;;6.07;1.90;;;;;;;;;;519873;28;1515;-73
2023/11/25 01:16:34;;;;;;;5.88;1.70;;;;;;;;;;519170;28;1362;-73
2023/11/25 01:16:50;;;;;;;4.68;1.70;;;;;;;;;;518787;28;2264;-73
2023/11/25 01:17:05;;;;;;;5.30;1.80;;;;;;;;;;518922;28;1349;-72
2023/11/25 01:17:21;;;;;;;5.35;1.95;;;;;;;;;;519153;28;1417;-73
2023/11/25 01:17:36;;;;;;;6.23;1.90;;;;;;;;;;518647;28;1243;-73
2023/11/25 01:17:52;;;;;;;6.75;2.10;;;;;;;;;;516837;28;1458;-73
2023/11/25 01:18:07;;;;;;;6.27;2.00;;;;;;;;;;517016;28;1483;-73
2023/11/25 01:18:22;;;;;;;5.75;1.80;;;;;;;;;;517618;28;2039;-73
2023/11/25 01:18:38;;;;;;;4.90;1.90;;;;;;;;;;519111;28;1444;-73
2023/11/25 01:18:53;;;;;;;6.13;2.20;;;;;;;;;;519747;28;1942;-73
2023/11/25 01:19:08;;;;;;;6.45;2.30;;;;;;;;;;520122;28;1317;-73
2023/11/25 01:19:24;;;;;;;4.57;2.00;;;;;;;;;;521269;28;1413;-73
2023/11/25 01:19:39;;;;;;;4.10;1.97;;;;;;;;;;521402;28;1799;-73
2023/11/25 01:19:54;;;;;;;4.45;2.00;;;;;;;;;;522414;28;1597;-73
2023/11/25 01:20:10;;;;;;;5.17;2.00;;;;;;;;;;521929;28;1218;-73
2023/11/25 01:20:25;;;;;;;5.40;1.90;;;;;;;;;;519451;28;1513;-73
2023/11/25 01:20:41;;;;;;;4.93;1.80;;;;;;;;;;520179;28;1561;-73
2023/11/25 01:20:57;;;;;;;5.78;2.00;;;;;;;;;;519944;28;1441;-73
2023/11/25 01:21:13;;;;;;;5.43;2.00;;;;;;;;;;519861;28;1317;-73
2023/11/25 01:21:29;;;;;;;5.15;2.00;;;;;;;;;;519778;28;1432;-73
2023/11/25 01:21:44;;;;;;;5.63;1.98;;;;;;;;;;519958;28;2229;-73
2023/11/25 01:22:00;;;;;;;6.60;2.13;;;;;;;;;;518425;28;1478;-73
2023/11/25 01:22:15;;;;;;;6.45;2.38;;;;;;;;;;517696;28;1350;-73
2023/11/25 01:22:30;;;;;;;5.57;2.30;;;;;;;;;;519328;28;1209;-73
2023/11/25 01:22:47;;;;;;;6.10;2.23;;;;;;;;;;520358;28;1439;-73
2023/11/25 01:23:02;;;;;;;6.20;2.05;;;;;;;;;;520204;28;1504;-73
2023/11/25 01:23:18;;;;;;;5.47;2.03;;;;;;;;;;520421;28;2322;-73
2023/11/25 01:23:33;;;;;;;5.07;2.23;;;;;;;;;;520846;28;1404;-73
2023/11/25 01:23:48;;;;;;;4.67;2.27;;;;;;;;;;518628;28;1298;-73
2023/11/25 01:24:06;;;;;;;4.17;2.07;;;;;;;;;;518760;28;1401;-73
2023/11/25 01:24:22;;;;;;;5.65;2.30;;;;;;;;;;517533;28;1950;-73
2023/11/25 01:24:37;;;;;;;5.95;2.28;;;;;;;;;;518937;28;1211;-72
2023/11/25 01:24:52;;;;;;;5.87;2.30;;;;;;;;;;518507;28;3663;-73
2023/11/25 01:25:08;;;;;;;7.27;2.50;;;;;;;;;;518778;28;1420;-73
2023/11/25 01:25:23;;;;;;;8.25;2.60;;;;;;;;;;519297;28;1519;-73
2023/11/25 01:25:38;;;;;;;7.13;2.60;;;;;;;;;;519224;28;1577;-73
2023/11/25 01:25:54;;;;;;;6.47;2.50;;;;;;;;;;521394;28;1313;-73
2023/11/25 01:26:09;;;;;;;6.13;2.30;;;;;;;;;;521012;28;1427;-73
2023/11/25 01:26:24;;;;;;;5.50;2.20;;;;;;;;;;520771;28;1792;-73
2023/11/25 01:26:40;;;;;;;5.57;2.30;;;;;;;;;;521018;28;1247;-73
2023/11/25 01:26:55;;;;;;;6.28;2.28;;;;;;;;;;521052;28;1959;-73
2023/11/25 01:27:10;;;;;;;6.77;2.40;;;;;;;;;;521196;28;1412;-73
2023/11/25 01:27:25;;;;;;;6.03;2.40;;;;;;;;;;520678;28;1416;-73
2023/11/25 01:27:42;;;;;;;5.97;2.23;;;;;;;;;;520885;28;1369;-73
2023/11/25 01:27:58;;;;;;;6.07;2.25;;;;;;;;;;520893;28;1850;-73
2023/11/25 01:28:13;;;;;;;5.47;2.30;;;;;;;;;;523467;28;1439;-73
2023/11/25 01:28:29;;;;;;;6.23;2.43;;;;;;;;;;523096;28;1089;-73
2023/11/25 01:28:45;;;;;;;5.28;2.42;;;;;;;;;;523071;28;1447;-73
2023/11/25 01:29:00;;;;;;;5.67;2.50;;;;;;;;;;523118;28;1328;-73
2023/11/25 01:29:15;;;;;;;6.67;2.60;;;;;;;;;;521329;28;1576;-73
2023/11/25 01:29:31;;;;;;;6.18;2.33;;;;;;;;;;521822;28;1756;-73
2023/11/25 01:29:46;;;;;;;5.23;2.00;;;;;;;;;;521840;28;1455;-73
2023/11/25 01:30:04;;;;;;;6.17;2.30;;;;;;;;;;522380;28;1369;-73
2023/11/25 01:30:20;;;;;;;6.13;2.50;;;;;;;;;;521575;28;1361;-73
2023/11/25 01:30:38;;;;;;;4.95;2.40;;;;;;;;;;520992;28;1364;-73
2023/11/25 01:30:54;;;;;;;6.90;2.60;;;;;;;;;;521624;28;1305;-73
2023/11/25 01:31:10;;;;;;;8.83;2.87;;;;;;;;;;522374;28;1882;-73
2023/11/25 01:31:26;;;;;;;7.82;2.78;;;;;;;;;;523231;28;1418;-73
2023/11/25 01:31:41;;;;;;;7.90;2.80;;;;;;;;;;523097;28;1420;-73
2023/11/25 01:31:56;;;;;;;7.03;2.77;;;;;;;;;;523080;28;1435;-73
2023/11/25 01:32:11;;;;;;;5.38;2.50;;;;;;;;;;522002;28;1808;-73
2023/11/25 01:32:27;;;;;;;6.07;2.43;;;;;;;;;;523115;28;1412;-73
2023/11/25 01:32:42;;;;;;;6.03;2.50;;;;;;;;;;522457;28;1623;-73
2023/11/25 01:33:02;;;;;;;6.05;2.65;;;;;;;;;;522391;28;1213;-73
2023/11/25 01:33:17;;;;;;;6.22;2.70;;;;;;;;;;522264;28;1182;-73
2023/11/25 01:33:33;;;;;;;6.40;2.67;;;;;;;;;;521609;28;1420;-73
2023/11/25 01:33:48;;;;;;;6.90;2.70;;;;;;;;;;521733;28;1329;-73
2023/11/25 01:34:04;;;;;;;6.85;2.60;;;;;;;;;;519825;28;1330;-73
2023/11/25 01:34:19;;;;;;;6.40;2.70;;;;;;;;;;519844;28;1782;-71
2023/11/25 01:34:35;;;;;;;5.78;2.60;;;;;;;;;;517777;28;1394;-70
2023/11/25 01:34:50;;;;;;;6.32;2.50;;;;;;;;;;518153;28;1417;-71
2023/11/25 01:35:06;;;;;;;7.17;2.83;;;;;;;;;;518367;28;1346;-71
2023/11/25 01:35:21;;;;;;;7.03;2.78;;;;;;;;;;517818;28;1458;-71
2023/11/25 01:35:41;;;;;;;5.87;2.40;;;;;;;;;;519038;28;1904;-71
2023/11/25 01:35:56;;;;;;;6.18;2.58;;;;;;;;;;520122;28;1767;-71
2023/11/25 01:36:12;;;;;;;6.03;2.60;;;;;;;;;;521411;28;1365;-71
2023/11/25 01:36:27;;;;;;;5.47;2.70;;;;;;;;;;521806;28;1455;-70
2023/11/25 01:36:42;;;;;;;5.43;2.70;;;;;;;;;;523567;28;1579;-71
2023/11/25 01:36:58;;;;;;;6.37;2.63;;;;;;;;;;521704;28;1679;-70
2023/11/25 01:37:15;;;;;;;7.30;2.70;;;;;;;;;;522326;28;1206;-71
2023/11/25 01:37:31;;;;;;;6.90;2.75;;;;;;;;;;523330;28;1990;-70